• Join FlightAware (Why Join?)
  • Login
  • US Flag 
03:21PM EST


 

Airport Tracker/Info


-or-


 

Live Flight TrackerFlight Track Log ✈ N7985N ✈ 26-Apr-2014 ✈ KPHF - KMQI

Flight Track Log - Related Links

Times and Time Zones

All times are in EDT time to prevent confusion due to time zone crossing. See the N7985N flight status page for this flight to view local times or setup timezone preferences in your user account.

Time Position Orientation Groundspeed Altitude Reporting Facility
EDT Latitude Longitude Course Direction KTS MPH feet Rate Location/Type
10:21PM 37.1297 -76.4989 244° Southwest 54 62 500  Level Washington Center
10:22PM 37.1231 -76.5158 244° Southwest 46 53 1,500 780 Climbing Washington Center
10:23PM 37.1131 -76.5269 222° Southwest 73 84 2,200 600 Climbing Washington Center
10:24PM 37.0972 -76.5161 151° Southeast 81 93 2,700 600 Climbing Washington Center
10:24PM 37.0917 -76.5142 164° South 87 100 2,800 540 Climbing Washington Center
10:25PM 37.0739 -76.5033 154° Southeast 87 100 3,300 540 Climbing Washington Center
10:26PM 37.0483 -76.4861 152° Southeast 100 115 3,800 540 Climbing Washington Center
10:26PM 37.0325 -76.4753 151° Southeast 107 123 4,200 540 Climbing Washington Center
10:27PM 37.0222 -76.4683 152° Southeast 103 119 4,400 540 Climbing Washington Center
10:27PM 37.0075 -76.4564 147° Southeast 113 130 4,700 540 Climbing Washington Center
10:28PM 36.9950 -76.4486 154° Southeast 110 127 5,000 360 Climbing Washington Center
10:28PM 36.9783 -76.4392 156° South 117 135 5,100 60 Climbing Washington Center
10:29PM 36.9578 -76.4253 152° Southeast 122 140 5,100  Level Washington Center
10:29PM 36.9456 -76.4158 148° Southeast 136 157 5,100  Level Washington Center
10:30PM 36.9256 -76.3978 144° Southeast 136 157 5,100  Level Washington Center
10:30PM 36.9136 -76.3878 146° Southeast 138 159 5,100  Level Washington Center
10:31PM 36.8947 -76.3733 149° Southeast 136 157 5,100  Level Washington Center
10:31PM 36.8814 -76.3619 146° Southeast 133 153 5,100  Level Washington Center
10:32PM 36.8631 -76.3497 152° Southeast 135 155 5,100  Level Washington Center
10:32PM 36.8503 -76.3419 154° Southeast 133 153 5,100  Level Washington Center
10:33PM 36.8303 -76.3292 153° Southeast 135 155 5,100  Level Washington Center
10:33PM 36.8197 -76.3192 143° Southeast 130 150 5,100  Level Washington Center
10:34PM 36.7997 -76.3058 152° Southeast 134 154 5,100  Level Washington Center
10:34PM 36.7850 -76.2956 151° Southeast 126 145 5,100  Level Washington Center
10:35PM 36.7692 -76.2853 153° Southeast 130 150 5,100  Level Washington Center
10:35PM 36.7561 -76.2761 151° Southeast 124 143 5,100  Level Washington Center
10:36PM 36.7383 -76.2653 154° Southeast 129 148 5,100  Level Washington Center
10:36PM 36.7250 -76.2558 150° Southeast 127 146 5,100  Level Washington Center
10:37PM 36.7047 -76.2439 155° Southeast 128 147 5,100  Level Washington Center
10:37PM 36.6939 -76.2358 149° Southeast 124 143 5,100  Level Washington Center
10:38PM 36.6733 -76.2242 156° South 128 147 5,100  Level Washington Center
10:38PM 36.6608 -76.2156 151° Southeast 129 148 5,100 60 Level Washington Center
10:39PM 36.6297 -76.1956 153° Southeast 128 147 5,200  Climbing Washington Center
10:40PM 36.6106 -76.1831 152° Southeast 128 147 5,100 -120 Descending Washington Center
10:40PM 36.5967 -76.1750 155° Southeast 129 148 5,100  Level Washington Center
10:41PM 36.5778 -76.1631 153° Southeast 128 147 5,100  Level Washington Center
10:41PM 36.5658 -76.1550 152° Southeast 129 148 5,100  Level Washington Center
10:42PM 36.5417 -76.1364 148° Southeast 128 147 5,100  Level Washington Center
10:42PM 36.5331 -76.1319 157° South 128 147 5,100  Level Washington Center
10:43PM 36.5092 -76.1156 151° Southeast 128 147 5,100  Level Washington Center
10:43PM 36.5022 -76.1094 145° Southeast 129 148 5,100 -120 Level Washington Center
10:44PM 36.4778 -76.0950 155° Southeast 128 147 5,000 -360 Descending Washington Center
10:44PM 36.4692 -76.0892 151° Southeast 128 147 4,800 -600 Descending Washington Center
10:45PM 36.4461 -76.0742 152° Southeast 128 147 4,400 -540 Descending Washington Center
10:45PM 36.4381 -76.0692 153° Southeast 130 150 4,300 -240 Descending Washington Center
10:46PM 36.4161 -76.0522 148° Southeast 128 147 4,200 -240 Descending Washington Center
10:46PM 36.4075 -76.0469 154° Southeast 125 144 4,100  Descending Washington Center
10:47PM 36.3861 -76.0322 151° Southeast 127 146 4,200  Climbing Washington Center
10:48PM 36.3569 -76.0111 150° Southeast 125 144 4,200  Level Washington Center
10:49PM 36.3278 -75.9875 147° Southeast 125 144 4,200  Level Washington Center
10:50PM 36.3011 -75.9581 138° Southeast 126 145 4,200  Level Washington Center
10:51PM 36.2808 -75.9142 120° Southeast 140 161 4,200  Level Washington Center
10:52PM 36.2564 -75.8639 121° Southeast 141 162 4,200  Level Washington Center
10:53PM 36.2358 -75.8244 123° Southeast 141 162 4,200  Level Washington Center
10:54PM 36.2128 -75.7847 126° Southeast 141 162 4,200  Level Washington Center
10:55PM 36.1892 -75.7475 128° Southeast 141 162 4,200  Level Washington Center
10:56PM 36.1658 -75.7114 129° Southeast 140 161 4,200  Level Washington Center
10:57PM 36.1411 -75.6769 132° Southeast 139 160 4,200  Level Washington Center
10:58PM 36.1175 -75.6403 129° Southeast 138 159 4,300 -300 Climbing Washington Center
10:59PM 36.0939 -75.6033 128° Southeast 138 159 3,700 -720 Descending Washington Center
11:00PM 36.0700 -75.5658 128° Southeast 138 159 2,900 -720 Descending Washington Center
11:01PM 36.0456 -75.5789 203° Southwest 128 147 2,300 -540 Descending Washington Center
11:02PM 36.0256 -75.5889 202° Southwest 104 120 1,900 -300 Descending Washington Center
11:03PM 36.0106 -75.6053 221° Southwest 87 100 1,800 -60 Descending Washington Center
11:05PM 35.9953 -75.6217 221° Southwest 70 81 1,800  Level Washington Center
11:06PM 35.9673 -75.6488 189° South  Level Estimated
11:13PM 35.9167 -75.6833 189° South  Level FlightAware Approximate
11:14PM 35.9190 -75.6955 219° Southwest  Level Estimated
11:15PM 35.9190 -75.6955 103° East  Level Estimated
11:16PM 35.9190 -75.6955 189° South  Level Estimated
11:17PM 35.9190 -75.6955 103° East  Level Estimated
11:18PM 35.9190 -75.6955 103° East  Level Estimated